createdAt,value
2022-07-31T00:00:08.824Z,99.90
2022-07-31T00:04:25.829Z,99.90
2022-07-31T00:08:42.817Z,99.90
2022-07-31T00:12:59.808Z,99.90
2022-07-31T00:17:16.867Z,99.90
2022-07-31T00:21:33.904Z,99.90
2022-07-31T00:25:50.948Z,99.90
2022-07-31T00:30:08.506Z,99.90
2022-07-31T00:34:25.531Z,99.90
2022-07-31T00:38:42.661Z,99.90
2022-07-31T00:42:59.657Z,99.90
2022-07-31T00:47:17.070Z,99.90
2022-07-31T00:51:34.785Z,99.90
2022-07-31T00:55:52.402Z,99.90
2022-07-31T01:00:09.835Z,99.90
2022-07-31T01:04:26.814Z,99.90
2022-07-31T01:08:44.488Z,99.90
2022-07-31T01:13:05.163Z,99.90
2022-07-31T01:17:23.150Z,99.90
2022-07-31T01:21:43.306Z,99.90
2022-07-31T01:26:16.036Z,99.90
2022-07-31T01:30:39.854Z,99.90
2022-07-31T01:35:02.516Z,99.90
2022-07-31T01:39:19.749Z,99.90
2022-07-31T01:43:40.672Z,99.90
2022-07-31T01:47:58.469Z,99.90
2022-07-31T01:52:15.830Z,99.90
2022-07-31T01:56:34.580Z,99.90
2022-07-31T02:00:52.789Z,99.90
2022-07-31T02:05:11.192Z,99.90
2022-07-31T02:09:28.579Z,99.90
2022-07-31T02:13:46.683Z,99.90
2022-07-31T02:18:04.647Z,99.90
2022-07-31T02:22:21.617Z,99.90
2022-07-31T02:26:41.334Z,99.90
2022-07-31T02:30:58.890Z,99.90
2022-07-31T02:35:16.964Z,99.90
2022-07-31T02:39:34.411Z,99.90
2022-07-31T02:43:51.891Z,99.90
2022-07-31T02:48:09.685Z,99.90
2022-07-31T02:52:26.736Z,99.90
2022-07-31T02:56:44.777Z,99.90
2022-07-31T03:01:06.043Z,99.90
2022-07-31T03:05:23.181Z,99.90
2022-07-31T03:09:40.199Z,99.90
2022-07-31T03:13:58.356Z,99.90
2022-07-31T03:18:16.385Z,99.90
2022-07-31T03:22:33.723Z,99.90
2022-07-31T03:26:50.744Z,99.90
2022-07-31T03:31:10.595Z,99.90
2022-07-31T03:35:27.579Z,99.90
2022-07-31T03:39:44.574Z,99.90
2022-07-31T03:44:02.092Z,99.90
2022-07-31T03:48:19.172Z,99.90
2022-07-31T03:52:36.276Z,99.90
2022-07-31T03:56:53.789Z,99.90
2022-07-31T04:01:12.167Z,99.90
2022-07-31T04:05:29.382Z,99.90
2022-07-31T04:09:47.119Z,99.90
2022-07-31T04:14:04.148Z,99.90
2022-07-31T04:18:21.170Z,99.90
2022-07-31T04:22:38.309Z,99.90
2022-07-31T04:26:57.002Z,99.90
2022-07-31T04:31:13.977Z,99.90
2022-07-31T04:35:31.089Z,99.90
2022-07-31T04:39:48.323Z,99.90
2022-07-31T04:44:05.361Z,99.90
2022-07-31T04:48:22.351Z,99.90
2022-07-31T04:52:39.409Z,99.90
2022-07-31T04:56:56.571Z,99.90
2022-07-31T05:01:13.699Z,99.90
2022-07-31T05:05:33.481Z,99.90
2022-07-31T05:09:50.507Z,99.90
2022-07-31T05:14:08.249Z,99.90
2022-07-31T05:18:25.265Z,99.90
2022-07-31T05:22:42.268Z,99.90
2022-07-31T05:26:59.411Z,99.90
2022-07-31T05:31:17.498Z,99.90
2022-07-31T05:35:34.549Z,99.90
2022-07-31T05:39:51.547Z,99.90
2022-07-31T05:44:08.706Z,99.90
2022-07-31T05:48:25.706Z,99.90
2022-07-31T05:52:42.755Z,99.90
2022-07-31T05:56:59.740Z,99.90
2022-07-31T06:01:17.237Z,99.90
2022-07-31T06:05:34.297Z,99.90
2022-07-31T06:09:51.286Z,99.90
2022-07-31T06:14:09.572Z,99.90
2022-07-31T06:18:26.625Z,99.90
2022-07-31T06:22:46.358Z,99.90
2022-07-31T06:27:03.780Z,99.90
2022-07-31T06:31:21.832Z,99.90
2022-07-31T06:35:38.919Z,99.90
2022-07-31T06:39:56.649Z,99.90
2022-07-31T06:44:14.290Z,99.90
2022-07-31T06:48:31.304Z,99.90
2022-07-31T06:52:48.538Z,99.90
2022-07-31T06:57:05.610Z,99.90
2022-07-31T07:01:22.747Z,99.90
2022-07-31T07:05:43.857Z,99.90
2022-07-31T07:10:02.474Z,99.90
2022-07-31T07:14:19.552Z,99.90
2022-07-31T07:18:36.558Z,99.90
2022-07-31T07:22:53.609Z,99.90
2022-07-31T07:27:10.704Z,99.90
2022-07-31T07:31:28.503Z,99.90
2022-07-31T07:35:45.584Z,99.90
2022-07-31T07:40:04.071Z,99.90
2022-07-31T07:44:21.314Z,99.90
2022-07-31T07:48:38.340Z,99.90
2022-07-31T07:52:55.346Z,99.90
2022-07-31T07:57:16.255Z,99.90
2022-07-31T08:01:33.338Z,99.90
2022-07-31T08:05:50.466Z,99.90
2022-07-31T08:10:07.897Z,99.90
2022-07-31T08:14:25.553Z,99.90
2022-07-31T08:18:42.587Z,99.90
2022-07-31T08:22:59.636Z,99.90
2022-07-31T08:27:24.291Z,99.90
2022-07-31T08:31:57.046Z,99.90
2022-07-31T08:36:14.158Z,99.90
2022-07-31T08:40:31.458Z,99.90
2022-07-31T08:44:51.983Z,99.90
2022-07-31T08:49:09.922Z,99.90
2022-07-31T08:53:31.024Z,97.30
2022-07-31T08:57:48.563Z,99.90
2022-07-31T09:02:06.018Z,99.90
2022-07-31T09:06:23.294Z,95.40
2022-07-31T09:10:40.314Z,94.30
2022-07-31T09:14:57.510Z,99.50
2022-07-31T09:19:51.702Z,97.60
2022-07-31T09:23:52.619Z,97.50
2022-07-31T09:28:09.666Z,93.80
2022-07-31T09:32:26.743Z,94.00
2022-07-31T09:36:43.798Z,95.70
2022-07-31T09:41:53.559Z,93.30
2022-07-31T09:45:57.506Z,92.70
2022-07-31T09:50:14.932Z,93.40
2022-07-31T09:54:32.030Z,86.90
2022-07-31T09:58:49.020Z,94.10
2022-07-31T10:03:06.657Z,90.20
2022-07-31T10:07:32.876Z,83.90
2022-07-31T10:11:51.502Z,80.80
2022-07-31T10:16:09.306Z,81.40
2022-07-31T10:20:26.733Z,78.10
2022-07-31T10:24:47.664Z,80.80
2022-07-31T10:29:04.892Z,86.40
2022-07-31T10:33:42.999Z,84.30
2022-07-31T10:38:06.203Z,76.20
2022-07-31T10:42:32.034Z,68.90
2022-07-31T10:46:49.113Z,69.40
2022-07-31T10:51:09.971Z,66.70
2022-07-31T10:55:27.167Z,69.00
2022-07-31T10:59:44.924Z,62.70
2022-07-31T11:04:02.524Z,64.00
2022-07-31T11:08:19.615Z,62.10
2022-07-31T11:12:36.926Z,61.50
2022-07-31T11:16:54.249Z,57.10
2022-07-31T11:21:37.141Z,55.50
2022-07-31T11:25:48.911Z,55.10
2022-07-31T11:30:12.612Z,58.20
2022-07-31T11:34:31.351Z,57.40
2022-07-31T11:38:52.258Z,59.00
2022-07-31T11:43:25.766Z,60.00
2022-07-31T11:48:11.853Z,58.60
2022-07-31T11:52:31.204Z,58.80
2022-07-31T11:56:55.574Z,59.10
2022-07-31T12:01:12.652Z,55.60
2022-07-31T12:05:38.812Z,53.90
2022-07-31T12:10:01.123Z,53.10
2022-07-31T12:14:33.001Z,57.90
2022-07-31T12:18:50.990Z,52.70
2022-07-31T12:23:08.117Z,52.60
2022-07-31T12:27:52.257Z,52.60
2022-07-31T12:32:09.383Z,49.40
2022-07-31T12:36:27.286Z,52.10
2022-07-31T12:40:44.324Z,55.60
2022-07-31T12:45:02.128Z,55.40
2022-07-31T12:49:37.349Z,57.80
2022-07-31T12:53:57.888Z,55.50
2022-07-31T12:58:14.901Z,57.50
2022-07-31T13:02:31.975Z,58.50
2022-07-31T13:06:51.059Z,58.60
2022-07-31T13:11:08.160Z,57.20
2022-07-31T13:15:31.100Z,55.50
2022-07-31T13:19:48.330Z,57.10
2022-07-31T13:24:08.932Z,53.90
2022-07-31T13:28:26.499Z,52.90
2022-07-31T13:32:43.563Z,55.30
2022-07-31T13:37:00.594Z,57.60
2022-07-31T13:41:31.181Z,54.50
2022-07-31T13:45:50.363Z,56.30
2022-07-31T13:50:07.491Z,63.40
2022-07-31T13:54:24.476Z,56.90
2022-07-31T13:58:41.504Z,57.90
2022-07-31T14:02:58.533Z,58.90
2022-07-31T14:07:15.539Z,59.50
2022-07-31T14:11:34.430Z,58.60
2022-07-31T14:15:51.497Z,59.30
2022-07-31T14:20:08.979Z,53.00
2022-07-31T14:24:26.186Z,52.00
2022-07-31T14:28:43.196Z,53.70
2022-07-31T14:33:00.878Z,54.90
2022-07-31T14:37:18.031Z,55.30
2022-07-31T14:41:35.048Z,57.00
2022-07-31T14:45:52.431Z,57.00
2022-07-31T14:50:12.871Z,57.50
2022-07-31T14:54:32.651Z,57.20
2022-07-31T14:58:57.480Z,56.10
2022-07-31T15:03:15.909Z,54.80
2022-07-31T15:07:37.271Z,58.40
2022-07-31T15:12:00.526Z,60.20
2022-07-31T15:16:18.433Z,58.80
2022-07-31T15:20:36.496Z,58.10
2022-07-31T15:24:53.512Z,59.10
2022-07-31T15:29:10.540Z,57.70
2022-07-31T15:33:27.609Z,58.70
2022-07-31T15:37:46.170Z,57.80
2022-07-31T15:42:03.320Z,57.30
2022-07-31T15:46:20.315Z,58.10
2022-07-31T15:50:37.959Z,60.10
2022-07-31T15:54:54.964Z,59.40
2022-07-31T15:59:11.996Z,61.10
2022-07-31T16:03:43.684Z,59.40
2022-07-31T16:08:31.292Z,63.80
2022-07-31T16:12:44.067Z,58.70
2022-07-31T16:17:01.132Z,58.10
2022-07-31T16:21:18.178Z,60.30
2022-07-31T16:25:35.372Z,59.60
2022-07-31T16:29:59.722Z,59.20
2022-07-31T16:34:20.083Z,59.20
2022-07-31T16:38:37.075Z,59.10
2022-07-31T16:42:54.107Z,59.80
2022-07-31T16:47:11.702Z,60.10
2022-07-31T16:51:28.821Z,60.50
2022-07-31T16:55:59.575Z,60.60
2022-07-31T17:00:18.260Z,60.50
2022-07-31T17:04:35.314Z,61.00
2022-07-31T17:08:52.613Z,62.50
2022-07-31T17:13:09.647Z,61.80
2022-07-31T17:17:26.702Z,68.40
2022-07-31T17:21:44.459Z,69.30
2022-07-31T17:26:01.906Z,63.30
2022-07-31T17:30:19.465Z,64.50
2022-07-31T17:34:37.388Z,68.90
2022-07-31T17:38:54.420Z,69.90
2022-07-31T17:43:11.403Z,66.50
2022-07-31T17:47:30.479Z,70.00
2022-07-31T17:51:58.740Z,67.00
2022-07-31T17:56:17.245Z,67.70
2022-07-31T18:00:34.345Z,69.10
2022-07-31T18:04:51.381Z,71.80
2022-07-31T18:09:08.402Z,70.20
2022-07-31T18:13:25.375Z,70.90
2022-07-31T18:17:43.249Z,72.60
2022-07-31T18:22:00.320Z,73.10
2022-07-31T18:26:17.702Z,78.60
2022-07-31T18:30:38.838Z,79.80
2022-07-31T18:34:56.320Z,83.00
2022-07-31T18:39:13.550Z,82.30
2022-07-31T18:43:30.630Z,84.20
2022-07-31T18:47:49.545Z,86.90
2022-07-31T18:52:07.086Z,90.80
2022-07-31T18:56:25.108Z,91.10
2022-07-31T19:00:42.178Z,92.70
2022-07-31T19:04:59.186Z,99.90
2022-07-31T19:09:18.032Z,99.90
2022-07-31T19:13:35.067Z,99.90
2022-07-31T19:17:54.886Z,99.90
2022-07-31T19:22:18.972Z,99.90
2022-07-31T19:26:36.256Z,99.90
2022-07-31T19:30:53.542Z,99.90
2022-07-31T19:35:10.810Z,99.90
2022-07-31T19:39:27.815Z,99.90
2022-07-31T19:43:44.892Z,99.90
2022-07-31T19:48:02.378Z,99.90
2022-07-31T19:52:19.532Z,99.90
2022-07-31T19:56:36.611Z,99.90
2022-07-31T20:00:54.069Z,99.90
2022-07-31T20:05:11.498Z,99.90
2022-07-31T20:09:30.605Z,99.90
2022-07-31T20:13:47.610Z,99.90
2022-07-31T20:18:04.804Z,99.90
2022-07-31T20:22:21.882Z,99.90
2022-07-31T20:26:38.960Z,99.90
2022-07-31T20:30:56.078Z,99.90
2022-07-31T20:35:32.844Z,99.90
2022-07-31T20:39:50.228Z,99.90
2022-07-31T20:44:07.230Z,99.90
2022-07-31T20:48:27.007Z,99.90
2022-07-31T20:52:48.485Z,99.90
2022-07-31T20:57:05.717Z,99.90
2022-07-31T21:01:23.060Z,99.90
2022-07-31T21:05:40.510Z,99.90
2022-07-31T21:09:57.535Z,99.90
2022-07-31T21:14:14.601Z,99.90
2022-07-31T21:18:34.548Z,99.90
2022-07-31T21:22:52.432Z,99.90
2022-07-31T21:27:11.070Z,99.90
2022-07-31T21:31:28.258Z,99.90
2022-07-31T21:35:45.886Z,99.90
2022-07-31T21:40:03.029Z,99.90
2022-07-31T21:44:20.246Z,99.90
2022-07-31T21:48:38.248Z,99.90
2022-07-31T21:52:55.261Z,99.90
2022-07-31T21:57:12.247Z,99.90
2022-07-31T22:01:29.325Z,99.90
2022-07-31T22:06:04.780Z,99.90
2022-07-31T22:10:21.956Z,99.90
2022-07-31T22:14:38.991Z,99.90
2022-07-31T22:18:56.244Z,99.90
2022-07-31T22:23:13.419Z,99.90
2022-07-31T22:27:49.218Z,99.90
2022-07-31T22:32:06.591Z,99.90
2022-07-31T22:36:23.973Z,99.90
2022-07-31T22:40:44.077Z,99.90
2022-07-31T22:45:01.718Z,99.90
2022-07-31T22:49:19.012Z,99.90
2022-07-31T22:53:36.269Z,99.90
2022-07-31T22:57:53.319Z,99.90
2022-07-31T23:02:11.807Z,99.90
2022-07-31T23:06:32.026Z,99.90
2022-07-31T23:10:49.636Z,99.90
2022-07-31T23:15:06.881Z,99.90
2022-07-31T23:19:23.951Z,99.90
2022-07-31T23:23:40.993Z,99.90
2022-07-31T23:28:05.711Z,99.90
2022-07-31T23:32:22.784Z,99.90
2022-07-31T23:36:39.834Z,99.90
2022-07-31T23:40:56.894Z,99.90
2022-07-31T23:45:13.921Z,99.90
2022-07-31T23:49:32.604Z,99.90
2022-07-31T23:53:49.739Z,99.90
2022-07-31T23:58:06.787Z,99.90
